createdAt,value
2022-12-23T00:24:59.561Z,135
2022-12-23T00:55:02.949Z,130
2022-12-23T01:25:01.984Z,128
2022-12-23T01:55:04.494Z,124
2022-12-23T02:25:00.959Z,119
2022-12-23T02:55:03.670Z,115
2022-12-23T03:25:05.796Z,25
2022-12-23T03:55:02.074Z,109
2022-12-23T04:25:05.967Z,24
2022-12-23T04:55:03.417Z,22
2022-12-23T05:25:03.966Z,105
2022-12-23T05:55:04.430Z,108
2022-12-23T06:25:08.202Z,98
2022-12-23T06:55:03.186Z,23
2022-12-23T07:25:00.173Z,22
2022-12-23T07:55:04.750Z,93
2022-12-23T08:25:00.704Z,20
2022-12-23T09:25:15.733Z,20
2022-12-23T09:56:28.378Z,20
2022-12-23T10:26:18.637Z,21
2022-12-23T10:56:15.261Z,19
2022-12-23T11:26:14.382Z,20
2022-12-23T11:56:17.691Z,20
2022-12-23T12:26:20.636Z,18
2022-12-23T12:56:18.228Z,76
2022-12-23T13:26:23.424Z,19
2022-12-23T13:56:25.298Z,162
2022-12-23T14:26:25.169Z,174
2022-12-23T14:56:23.139Z,129
2022-12-23T15:26:27.339Z,127
2022-12-23T15:56:28.830Z,121
2022-12-23T16:26:29.417Z,120
2022-12-23T16:56:32.056Z,115
2022-12-23T17:27:36.005Z,151
2022-12-23T17:57:27.068Z,126
2022-12-23T18:27:28.296Z,127
2022-12-23T18:57:28.334Z,122
2022-12-23T19:27:30.136Z,117
2022-12-23T19:57:29.546Z,116
2022-12-23T20:27:31.322Z,122
2022-12-23T20:57:29.117Z,110
2022-12-23T21:27:29.259Z,106
2022-12-23T21:57:30.751Z,105
2022-12-23T22:27:32.963Z,103
2022-12-23T22:57:32.439Z,104
2022-12-23T23:27:29.891Z,104
2022-12-23T23:57:29.360Z,103
